sensor_id;sensor_type;location;lat;lon;timestamp;temperature;humidity
3678;DHT22;1855;50.934;6.958;2022-09-28T00:00:18;8.30;98.60
3678;DHT22;1855;50.934;6.958;2022-09-28T00:02:47;8.30;98.50
3678;DHT22;1855;50.934;6.958;2022-09-28T00:05:14;8.30;98.20
3678;DHT22;1855;50.934;6.958;2022-09-28T00:07:41;8.30;98.10
3678;DHT22;1855;50.934;6.958;2022-09-28T00:10:09;8.30;97.80
3678;DHT22;1855;50.934;6.958;2022-09-28T00:12:35;8.30;97.90
3678;DHT22;1855;50.934;6.958;2022-09-28T00:15:03;8.30;98.00
3678;DHT22;1855;50.934;6.958;2022-09-28T00:17:30;8.30;97.90
3678;DHT22;1855;50.934;6.958;2022-09-28T00:19:58;8.30;97.80
3678;DHT22;1855;50.934;6.958;2022-09-28T00:22:25;8.30;97.80
3678;DHT22;1855;50.934;6.958;2022-09-28T00:24:51;8.30;97.60
3678;DHT22;1855;50.934;6.958;2022-09-28T00:27:18;8.40;97.60
3678;DHT22;1855;50.934;6.958;2022-09-28T00:29:45;8.40;97.60
3678;DHT22;1855;50.934;6.958;2022-09-28T00:32:12;8.40;97.50
3678;DHT22;1855;50.934;6.958;2022-09-28T00:34:41;8.40;97.60
3678;DHT22;1855;50.934;6.958;2022-09-28T00:37:13;8.40;97.40
3678;DHT22;1855;50.934;6.958;2022-09-28T00:39:40;8.40;97.40
3678;DHT22;1855;50.934;6.958;2022-09-28T00:42:12;8.40;97.40
3678;DHT22;1855;50.934;6.958;2022-09-28T00:44:46;8.40;97.40
3678;DHT22;1855;50.934;6.958;2022-09-28T00:47:36;8.40;97.40
3678;DHT22;1855;50.934;6.958;2022-09-28T00:50:07;8.40;97.40
3678;DHT22;1855;50.934;6.958;2022-09-28T00:52:39;8.40;97.40
3678;DHT22;1855;50.934;6.958;2022-09-28T00:55:10;8.30;97.50
3678;DHT22;1855;50.934;6.958;2022-09-28T00:57:40;8.30;97.60
3678;DHT22;1855;50.934;6.958;2022-09-28T01:00:09;8.30;97.70
3678;DHT22;1855;50.934;6.958;2022-09-28T01:02:36;8.30;97.80
3678;DHT22;1855;50.934;6.958;2022-09-28T01:05:04;8.30;97.90
3678;DHT22;1855;50.934;6.958;2022-09-28T01:07:33;8.30;97.90
3678;DHT22;1855;50.934;6.958;2022-09-28T01:10:03;8.30;97.90
3678;DHT22;1855;50.934;6.958;2022-09-28T01:12:30;8.30;97.40
3678;DHT22;1855;50.934;6.958;2022-09-28T01:14:58;8.30;97.50
3678;DHT22;1855;50.934;6.958;2022-09-28T01:17:31;8.30;97.60
3678;DHT22;1855;50.934;6.958;2022-09-28T01:20:26;8.30;97.70
3678;DHT22;1855;50.934;6.958;2022-09-28T01:23:22;8.30;97.60
3678;DHT22;1855;50.934;6.958;2022-09-28T01:29:05;8.30;97.80
3678;DHT22;1855;50.934;6.958;2022-09-28T01:31:40;8.30;97.80
3678;DHT22;1855;50.934;6.958;2022-09-28T01:34:14;8.20;97.80
3678;DHT22;1855;50.934;6.958;2022-09-28T01:36:44;8.30;97.70
3678;DHT22;1855;50.934;6.958;2022-09-28T01:39:15;8.20;97.70
3678;DHT22;1855;50.934;6.958;2022-09-28T01:41:45;8.20;97.60
3678;DHT22;1855;50.934;6.958;2022-09-28T01:44:16;8.30;97.60
3678;DHT22;1855;50.934;6.958;2022-09-28T01:46:46;8.30;97.60
3678;DHT22;1855;50.934;6.958;2022-09-28T01:49:18;8.20;97.50
3678;DHT22;1855;50.934;6.958;2022-09-28T01:51:50;8.20;97.50
3678;DHT22;1855;50.934;6.958;2022-09-28T01:54:22;8.20;97.60
3678;DHT22;1855;50.934;6.958;2022-09-28T01:56:54;8.20;97.60
3678;DHT22;1855;50.934;6.958;2022-09-28T01:59:27;8.20;97.70
3678;DHT22;1855;50.934;6.958;2022-09-28T02:01:58;8.30;97.80
3678;DHT22;1855;50.934;6.958;2022-09-28T02:04:30;8.30;97.80
3678;DHT22;1855;50.934;6.958;2022-09-28T02:07:01;8.30;97.70
3678;DHT22;1855;50.934;6.958;2022-09-28T02:09:34;8.30;97.60
3678;DHT22;1855;50.934;6.958;2022-09-28T02:12:06;8.30;97.40
3678;DHT22;1855;50.934;6.958;2022-09-28T02:14:37;8.30;97.40
3678;DHT22;1855;50.934;6.958;2022-09-28T02:17:05;8.30;97.40
3678;DHT22;1855;50.934;6.958;2022-09-28T02:19:32;8.30;97.40
3678;DHT22;1855;50.934;6.958;2022-09-28T02:22:03;8.30;97.40
3678;DHT22;1855;50.934;6.958;2022-09-28T02:24:36;8.30;97.40
3678;DHT22;1855;50.934;6.958;2022-09-28T02:27:11;8.30;97.40
3678;DHT22;1855;50.934;6.958;2022-09-28T02:29:40;8.40;97.40
3678;DHT22;1855;50.934;6.958;2022-09-28T02:32:07;8.30;97.40
3678;DHT22;1855;50.934;6.958;2022-09-28T02:34:34;8.40;97.40
3678;DHT22;1855;50.934;6.958;2022-09-28T02:37:01;8.30;97.40
3678;DHT22;1855;50.934;6.958;2022-09-28T02:39:28;8.40;97.50
3678;DHT22;1855;50.934;6.958;2022-09-28T02:42:04;8.40;97.40
3678;DHT22;1855;50.934;6.958;2022-09-28T02:44:55;8.40;97.40
3678;DHT22;1855;50.934;6.958;2022-09-28T02:47:34;8.40;97.50
3678;DHT22;1855;50.934;6.958;2022-09-28T02:50:11;8.40;97.50
3678;DHT22;1855;50.934;6.958;2022-09-28T02:53:06;8.40;97.60
3678;DHT22;1855;50.934;6.958;2022-09-28T02:55:42;8.50;97.60
3678;DHT22;1855;50.934;6.958;2022-09-28T02:58:20;8.50;97.60
3678;DHT22;1855;50.934;6.958;2022-09-28T03:00:56;8.50;97.60
3678;DHT22;1855;50.934;6.958;2022-09-28T03:03:31;8.50;97.50
3678;DHT22;1855;50.934;6.958;2022-09-28T03:06:03;8.50;97.50
3678;DHT22;1855;50.934;6.958;2022-09-28T03:08:36;8.50;97.40
3678;DHT22;1855;50.934;6.958;2022-09-28T03:11:08;8.50;97.40
3678;DHT22;1855;50.934;6.958;2022-09-28T03:13:38;8.50;97.40
3678;DHT22;1855;50.934;6.958;2022-09-28T03:16:11;8.60;97.40
3678;DHT22;1855;50.934;6.958;2022-09-28T03:18:38;8.60;97.40
3678;DHT22;1855;50.934;6.958;2022-09-28T03:21:05;8.60;97.30
3678;DHT22;1855;50.934;6.958;2022-09-28T03:23:32;8.60;97.40
3678;DHT22;1855;50.934;6.958;2022-09-28T03:25:59;8.60;97.20
3678;DHT22;1855;50.934;6.958;2022-09-28T03:28:26;8.60;97.10
3678;DHT22;1855;50.934;6.958;2022-09-28T03:30:54;8.60;97.00
3678;DHT22;1855;50.934;6.958;2022-09-28T03:33:22;8.60;97.00
3678;DHT22;1855;50.934;6.958;2022-09-28T03:35:49;8.60;97.10
3678;DHT22;1855;50.934;6.958;2022-09-28T03:38:16;8.60;97.20
3678;DHT22;1855;50.934;6.958;2022-09-28T03:40:43;8.60;97.40
3678;DHT22;1855;50.934;6.958;2022-09-28T03:43:10;8.50;97.40
3678;DHT22;1855;50.934;6.958;2022-09-28T03:45:37;8.50;97.50
3678;DHT22;1855;50.934;6.958;2022-09-28T03:48:04;8.50;97.70
3678;DHT22;1855;50.934;6.958;2022-09-28T03:50:32;8.50;97.80
3678;DHT22;1855;50.934;6.958;2022-09-28T03:53:02;8.50;97.80
3678;DHT22;1855;50.934;6.958;2022-09-28T03:55:29;8.60;97.90
3678;DHT22;1855;50.934;6.958;2022-09-28T03:57:56;8.50;97.90
3678;DHT22;1855;50.934;6.958;2022-09-28T04:00:23;8.50;98.00
3678;DHT22;1855;50.934;6.958;2022-09-28T04:02:49;8.50;98.10
3678;DHT22;1855;50.934;6.958;2022-09-28T04:05:16;8.50;98.20
3678;DHT22;1855;50.934;6.958;2022-09-28T04:07:44;8.50;98.20
3678;DHT22;1855;50.934;6.958;2022-09-28T04:10:11;8.50;98.20
3678;DHT22;1855;50.934;6.958;2022-09-28T04:12:38;8.50;98.30
3678;DHT22;1855;50.934;6.958;2022-09-28T04:15:05;8.50;98.50
3678;DHT22;1855;50.934;6.958;2022-09-28T04:17:32;8.40;98.50
3678;DHT22;1855;50.934;6.958;2022-09-28T04:19:59;8.40;98.60
3678;DHT22;1855;50.934;6.958;2022-09-28T04:22:27;8.40;98.90
3678;DHT22;1855;50.934;6.958;2022-09-28T04:24:56;8.40;99.10
3678;DHT22;1855;50.934;6.958;2022-09-28T04:27:22;8.40;99.20
3678;DHT22;1855;50.934;6.958;2022-09-28T04:30:08;8.40;99.30
3678;DHT22;1855;50.934;6.958;2022-09-28T04:32:35;8.40;99.40
3678;DHT22;1855;50.934;6.958;2022-09-28T04:35:02;8.40;99.90
3678;DHT22;1855;50.934;6.958;2022-09-28T04:37:29;8.50;99.60
3678;DHT22;1855;50.934;6.958;2022-09-28T04:39:57;8.50;99.70
3678;DHT22;1855;50.934;6.958;2022-09-28T04:42:24;8.50;99.70
3678;DHT22;1855;50.934;6.958;2022-09-28T04:44:51;8.50;99.80
3678;DHT22;1855;50.934;6.958;2022-09-28T04:47:18;8.50;99.80
3678;DHT22;1855;50.934;6.958;2022-09-28T04:49:44;8.50;99.80
3678;DHT22;1855;50.934;6.958;2022-09-28T04:52:11;8.50;99.90
3678;DHT22;1855;50.934;6.958;2022-09-28T04:54:38;8.50;99.80
3678;DHT22;1855;50.934;6.958;2022-09-28T04:57:06;8.50;99.90
3678;DHT22;1855;50.934;6.958;2022-09-28T04:59:33;8.50;99.80
3678;DHT22;1855;50.934;6.958;2022-09-28T05:02:02;8.50;99.70
3678;DHT22;1855;50.934;6.958;2022-09-28T05:04:28;8.50;99.70
3678;DHT22;1855;50.934;6.958;2022-09-28T05:06:56;8.40;99.60
3678;DHT22;1855;50.934;6.958;2022-09-28T05:09:22;8.40;99.50
3678;DHT22;1855;50.934;6.958;2022-09-28T05:11:50;8.40;99.50
3678;DHT22;1855;50.934;6.958;2022-09-28T05:14:19;8.40;99.40
3678;DHT22;1855;50.934;6.958;2022-09-28T05:16:46;8.40;99.40
3678;DHT22;1855;50.934;6.958;2022-09-28T05:19:13;8.40;99.40
3678;DHT22;1855;50.934;6.958;2022-09-28T05:21:44;8.40;99.20
3678;DHT22;1855;50.934;6.958;2022-09-28T05:24:11;8.40;99.30
3678;DHT22;1855;50.934;6.958;2022-09-28T05:26:38;8.40;99.20
3678;DHT22;1855;50.934;6.958;2022-09-28T05:29:05;8.40;99.20
3678;DHT22;1855;50.934;6.958;2022-09-28T05:31:33;8.40;99.20
3678;DHT22;1855;50.934;6.958;2022-09-28T05:34:00;8.40;99.10
3678;DHT22;1855;50.934;6.958;2022-09-28T05:36:27;8.40;99.10
3678;DHT22;1855;50.934;6.958;2022-09-28T05:38:54;8.40;99.00
3678;DHT22;1855;50.934;6.958;2022-09-28T05:41:21;8.40;98.60
3678;DHT22;1855;50.934;6.958;2022-09-28T05:43:48;8.30;98.70
3678;DHT22;1855;50.934;6.958;2022-09-28T05:46:16;8.40;98.70
3678;DHT22;1855;50.934;6.958;2022-09-28T05:48:45;8.40;98.70
3678;DHT22;1855;50.934;6.958;2022-09-28T05:51:12;8.40;98.70
3678;DHT22;1855;50.934;6.958;2022-09-28T05:53:39;8.40;98.70
3678;DHT22;1855;50.934;6.958;2022-09-28T05:56:06;8.40;98.60
3678;DHT22;1855;50.934;6.958;2022-09-28T05:58:33;8.40;98.50
3678;DHT22;1855;50.934;6.958;2022-09-28T06:00:59;8.40;98.40
3678;DHT22;1855;50.934;6.958;2022-09-28T06:03:27;8.40;98.30
3678;DHT22;1855;50.934;6.958;2022-09-28T06:05:55;8.40;98.30
3678;DHT22;1855;50.934;6.958;2022-09-28T06:08:22;8.40;98.20
3678;DHT22;1855;50.934;6.958;2022-09-28T06:10:48;8.40;98.60
3678;DHT22;1855;50.934;6.958;2022-09-28T06:13:15;8.50;98.10
3678;DHT22;1855;50.934;6.958;2022-09-28T06:15:42;8.50;98.10
3678;DHT22;1855;50.934;6.958;2022-09-28T06:18:11;8.50;98.20
3678;DHT22;1855;50.934;6.958;2022-09-28T06:20:39;8.50;98.10
3678;DHT22;1855;50.934;6.958;2022-09-28T06:23:08;8.50;98.10
3678;DHT22;1855;50.934;6.958;2022-09-28T06:25:36;8.50;98.00
3678;DHT22;1855;50.934;6.958;2022-09-28T06:28:04;8.50;98.30
3678;DHT22;1855;50.934;6.958;2022-09-28T06:30:33;8.50;98.00
3678;DHT22;1855;50.934;6.958;2022-09-28T06:33:03;8.50;98.00
3678;DHT22;1855;50.934;6.958;2022-09-28T06:35:31;8.50;97.80
3678;DHT22;1855;50.934;6.958;2022-09-28T06:37:59;8.50;97.50
3678;DHT22;1855;50.934;6.958;2022-09-28T06:40:27;8.50;97.40
3678;DHT22;1855;50.934;6.958;2022-09-28T06:42:55;8.50;97.60
3678;DHT22;1855;50.934;6.958;2022-09-28T06:45:22;8.50;97.40
3678;DHT22;1855;50.934;6.958;2022-09-28T06:47:54;8.50;97.30
3678;DHT22;1855;50.934;6.958;2022-09-28T06:50:22;8.50;97.40
3678;DHT22;1855;50.934;6.958;2022-09-28T06:52:50;8.50;97.50
3678;DHT22;1855;50.934;6.958;2022-09-28T06:55:17;8.50;97.30
3678;DHT22;1855;50.934;6.958;2022-09-28T06:57:46;8.60;96.90
3678;DHT22;1855;50.934;6.958;2022-09-28T07:00:13;8.60;96.90
3678;DHT22;1855;50.934;6.958;2022-09-28T07:02:40;8.60;96.60
3678;DHT22;1855;50.934;6.958;2022-09-28T07:05:10;8.60;96.50
3678;DHT22;1855;50.934;6.958;2022-09-28T07:07:38;8.60;96.30
3678;DHT22;1855;50.934;6.958;2022-09-28T07:10:06;8.60;96.30
3678;DHT22;1855;50.934;6.958;2022-09-28T07:12:34;8.60;96.40
3678;DHT22;1855;50.934;6.958;2022-09-28T07:15:02;8.70;96.30
3678;DHT22;1855;50.934;6.958;2022-09-28T07:17:29;8.70;96.10
3678;DHT22;1855;50.934;6.958;2022-09-28T07:19:59;8.80;95.90
3678;DHT22;1855;50.934;6.958;2022-09-28T07:22:29;8.80;96.00
3678;DHT22;1855;50.934;6.958;2022-09-28T07:24:55;8.80;95.80
3678;DHT22;1855;50.934;6.958;2022-09-28T07:27:23;8.80;95.70
3678;DHT22;1855;50.934;6.958;2022-09-28T07:29:50;8.80;95.80
3678;DHT22;1855;50.934;6.958;2022-09-28T07:32:19;8.80;96.10
3678;DHT22;1855;50.934;6.958;2022-09-28T07:34:46;8.80;96.20
3678;DHT22;1855;50.934;6.958;2022-09-28T07:37:13;8.80;96.60
3678;DHT22;1855;50.934;6.958;2022-09-28T07:39:43;8.80;96.30
3678;DHT22;1855;50.934;6.958;2022-09-28T07:42:28;8.80;96.60
3678;DHT22;1855;50.934;6.958;2022-09-28T07:44:55;8.90;96.80
3678;DHT22;1855;50.934;6.958;2022-09-28T07:47:23;8.90;96.50
3678;DHT22;1855;50.934;6.958;2022-09-28T07:49:52;8.90;95.80
3678;DHT22;1855;50.934;6.958;2022-09-28T07:52:21;9.00;96.20
3678;DHT22;1855;50.934;6.958;2022-09-28T07:54:49;9.00;96.00
3678;DHT22;1855;50.934;6.958;2022-09-28T07:57:16;9.10;96.00
3678;DHT22;1855;50.934;6.958;2022-09-28T07:59:43;9.10;95.40
3678;DHT22;1855;50.934;6.958;2022-09-28T08:02:11;9.20;95.30
3678;DHT22;1855;50.934;6.958;2022-09-28T08:04:39;9.30;95.40
3678;DHT22;1855;50.934;6.958;2022-09-28T08:07:08;9.40;94.80
3678;DHT22;1855;50.934;6.958;2022-09-28T08:09:35;9.50;93.80
3678;DHT22;1855;50.934;6.958;2022-09-28T08:12:03;9.50;94.10
3678;DHT22;1855;50.934;6.958;2022-09-28T08:14:30;9.70;94.40
3678;DHT22;1855;50.934;6.958;2022-09-28T08:16:59;9.90;94.40
3678;DHT22;1855;50.934;6.958;2022-09-28T08:19:26;10.10;93.00
3678;DHT22;1855;50.934;6.958;2022-09-28T08:22:16;10.10;93.00
3678;DHT22;1855;50.934;6.958;2022-09-28T08:24:43;10.10;92.90
3678;DHT22;1855;50.934;6.958;2022-09-28T08:27:10;10.00;92.80
3678;DHT22;1855;50.934;6.958;2022-09-28T08:29:37;10.00;93.20
3678;DHT22;1855;50.934;6.958;2022-09-28T08:32:05;10.00;92.40
3678;DHT22;1855;50.934;6.958;2022-09-28T08:34:33;10.00;91.90
3678;DHT22;1855;50.934;6.958;2022-09-28T08:37:00;10.00;92.60
3678;DHT22;1855;50.934;6.958;2022-09-28T08:39:28;10.20;92.00
3678;DHT22;1855;50.934;6.958;2022-09-28T08:42:05;10.20;91.90
3678;DHT22;1855;50.934;6.958;2022-09-28T08:44:39;10.30;91.40
3678;DHT22;1855;50.934;6.958;2022-09-28T08:47:12;10.40;90.70
3678;DHT22;1855;50.934;6.958;2022-09-28T08:50:02;10.40;90.90
3678;DHT22;1855;50.934;6.958;2022-09-28T08:52:34;10.40;91.00
3678;DHT22;1855;50.934;6.958;2022-09-28T08:55:08;10.50;91.00
3678;DHT22;1855;50.934;6.958;2022-09-28T08:57:42;10.60;90.80
3678;DHT22;1855;50.934;6.958;2022-09-28T09:00:16;10.70;90.60
3678;DHT22;1855;50.934;6.958;2022-09-28T09:02:45;10.80;91.00
3678;DHT22;1855;50.934;6.958;2022-09-28T09:05:15;10.90;90.20
3678;DHT22;1855;50.934;6.958;2022-09-28T09:08:04;10.90;89.60
3678;DHT22;1855;50.934;6.958;2022-09-28T09:10:46;10.90;87.20
3678;DHT22;1855;50.934;6.958;2022-09-28T09:13:30;10.90;88.20
3678;DHT22;1855;50.934;6.958;2022-09-28T09:16:05;10.90;86.70
3678;DHT22;1855;50.934;6.958;2022-09-28T09:18:36;11.00;88.10
3678;DHT22;1855;50.934;6.958;2022-09-28T09:21:11;11.00;87.10
3678;DHT22;1855;50.934;6.958;2022-09-28T09:23:52;11.00;86.70
3678;DHT22;1855;50.934;6.958;2022-09-28T09:26:34;11.00;84.90
3678;DHT22;1855;50.934;6.958;2022-09-28T09:29:16;11.10;85.20
3678;DHT22;1855;50.934;6.958;2022-09-28T09:32:02;11.20;84.30
3678;DHT22;1855;50.934;6.958;2022-09-28T09:34:44;11.40;85.40
3678;DHT22;1855;50.934;6.958;2022-09-28T09:37:40;11.60;84.40
3678;DHT22;1855;50.934;6.958;2022-09-28T09:40:25;11.90;80.60
3678;DHT22;1855;50.934;6.958;2022-09-28T09:43:03;12.00;80.20
3678;DHT22;1855;50.934;6.958;2022-09-28T09:45:52;12.00;80.20
3678;DHT22;1855;50.934;6.958;2022-09-28T09:48:25;12.00;81.10
3678;DHT22;1855;50.934;6.958;2022-09-28T09:50:57;12.00;81.70
3678;DHT22;1855;50.934;6.958;2022-09-28T09:53:28;11.90;79.20
3678;DHT22;1855;50.934;6.958;2022-09-28T09:56:02;11.70;80.40
3678;DHT22;1855;50.934;6.958;2022-09-28T09:58:36;11.60;80.70
3678;DHT22;1855;50.934;6.958;2022-09-28T10:01:08;11.60;82.00
3678;DHT22;1855;50.934;6.958;2022-09-28T10:03:41;11.60;80.20
3678;DHT22;1855;50.934;6.958;2022-09-28T10:06:14;11.80;80.10
3678;DHT22;1855;50.934;6.958;2022-09-28T10:08:44;11.90;79.20
3678;DHT22;1855;50.934;6.958;2022-09-28T10:11:17;12.10;80.10
3678;DHT22;1855;50.934;6.958;2022-09-28T10:13:47;12.10;78.50
3678;DHT22;1855;50.934;6.958;2022-09-28T10:16:15;12.00;78.20
3678;DHT22;1855;50.934;6.958;2022-09-28T10:18:42;12.00;78.10
3678;DHT22;1855;50.934;6.958;2022-09-28T10:21:11;12.00;78.30
3678;DHT22;1855;50.934;6.958;2022-09-28T10:23:39;12.00;79.00
3678;DHT22;1855;50.934;6.958;2022-09-28T10:26:11;12.10;78.40
3678;DHT22;1855;50.934;6.958;2022-09-28T10:28:41;12.10;77.10
3678;DHT22;1855;50.934;6.958;2022-09-28T10:31:34;12.10;77.90
3678;DHT22;1855;50.934;6.958;2022-09-28T10:34:01;12.10;76.90
3678;DHT22;1855;50.934;6.958;2022-09-28T10:36:30;12.10;77.60
3678;DHT22;1855;50.934;6.958;2022-09-28T10:39:03;12.30;75.30
3678;DHT22;1855;50.934;6.958;2022-09-28T10:41:30;12.30;73.40
3678;DHT22;1855;50.934;6.958;2022-09-28T10:44:01;12.30;73.50
3678;DHT22;1855;50.934;6.958;2022-09-28T10:46:37;12.40;73.60
3678;DHT22;1855;50.934;6.958;2022-09-28T10:49:06;12.60;72.00
3678;DHT22;1855;50.934;6.958;2022-09-28T10:51:42;12.90;72.40
3678;DHT22;1855;50.934;6.958;2022-09-28T10:54:13;13.10;70.20
3678;DHT22;1855;50.934;6.958;2022-09-28T10:56:41;13.20;69.70
3678;DHT22;1855;50.934;6.958;2022-09-28T10:59:24;13.20;70.20
3678;DHT22;1855;50.934;6.958;2022-09-28T11:02:03;13.40;70.70
3678;DHT22;1855;50.934;6.958;2022-09-28T11:04:39;13.50;70.90
3678;DHT22;1855;50.934;6.958;2022-09-28T11:07:15;13.60;68.10
3678;DHT22;1855;50.934;6.958;2022-09-28T11:09:46;13.70;70.30
3678;DHT22;1855;50.934;6.958;2022-09-28T11:12:14;13.80;69.60
3678;DHT22;1855;50.934;6.958;2022-09-28T11:14:42;14.10;70.00
3678;DHT22;1855;50.934;6.958;2022-09-28T11:17:16;14.30;68.50
3678;DHT22;1855;50.934;6.958;2022-09-28T11:19:44;14.30;65.70
3678;DHT22;1855;50.934;6.958;2022-09-28T11:22:22;14.10;64.70
3678;DHT22;1855;50.934;6.958;2022-09-28T11:24:50;13.60;66.80
3678;DHT22;1855;50.934;6.958;2022-09-28T11:27:22;13.40;68.20
3678;DHT22;1855;50.934;6.958;2022-09-28T11:29:55;13.30;70.00
3678;DHT22;1855;50.934;6.958;2022-09-28T11:32:28;13.20;69.30
3678;DHT22;1855;50.934;6.958;2022-09-28T11:34:57;13.30;70.70
3678;DHT22;1855;50.934;6.958;2022-09-28T11:40:26;13.40;69.40
3678;DHT22;1855;50.934;6.958;2022-09-28T11:43:02;13.50;69.70
3678;DHT22;1855;50.934;6.958;2022-09-28T11:45:39;13.60;69.80
3678;DHT22;1855;50.934;6.958;2022-09-28T11:48:14;13.70;70.30
3678;DHT22;1855;50.934;6.958;2022-09-28T11:50:45;13.90;67.40
3678;DHT22;1855;50.934;6.958;2022-09-28T11:53:20;14.00;65.80
3678;DHT22;1855;50.934;6.958;2022-09-28T11:55:53;14.00;63.70
3678;DHT22;1855;50.934;6.958;2022-09-28T11:58:26;13.90;64.20
3678;DHT22;1855;50.934;6.958;2022-09-28T12:01:00;13.80;64.80
3678;DHT22;1855;50.934;6.958;2022-09-28T12:03:34;13.60;65.90
3678;DHT22;1855;50.934;6.958;2022-09-28T12:06:05;13.50;68.00
3678;DHT22;1855;50.934;6.958;2022-09-28T12:08:35;13.40;67.10
3678;DHT22;1855;50.934;6.958;2022-09-28T12:11:07;13.40;66.50
3678;DHT22;1855;50.934;6.958;2022-09-28T12:13:39;13.40;67.20
3678;DHT22;1855;50.934;6.958;2022-09-28T12:16:14;13.40;68.20
3678;DHT22;1855;50.934;6.958;2022-09-28T12:18:47;13.40;67.40
3678;DHT22;1855;50.934;6.958;2022-09-28T12:21:27;13.40;67.90
3678;DHT22;1855;50.934;6.958;2022-09-28T12:24:02;13.40;67.20
3678;DHT22;1855;50.934;6.958;2022-09-28T12:26:33;13.50;67.80
3678;DHT22;1855;50.934;6.958;2022-09-28T12:29:04;13.40;68.80
3678;DHT22;1855;50.934;6.958;2022-09-28T12:31:36;13.40;68.60
3678;DHT22;1855;50.934;6.958;2022-09-28T12:34:08;13.40;69.10
3678;DHT22;1855;50.934;6.958;2022-09-28T12:36:44;13.50;68.10
3678;DHT22;1855;50.934;6.958;2022-09-28T12:39:24;13.40;68.70
3678;DHT22;1855;50.934;6.958;2022-09-28T12:42:02;13.40;69.10
3678;DHT22;1855;50.934;6.958;2022-09-28T12:44:54;13.40;68.50
3678;DHT22;1855;50.934;6.958;2022-09-28T12:50:32;13.40;67.30
3678;DHT22;1855;50.934;6.958;2022-09-28T12:53:16;13.30;67.70
3678;DHT22;1855;50.934;6.958;2022-09-28T12:55:51;13.30;68.10
3678;DHT22;1855;50.934;6.958;2022-09-28T12:58:35;13.30;69.40
3678;DHT22;1855;50.934;6.958;2022-09-28T13:01:13;13.50;68.20
3678;DHT22;1855;50.934;6.958;2022-09-28T13:03:58;13.50;68.60
3678;DHT22;1855;50.934;6.958;2022-09-28T13:06:36;13.60;68.00
3678;DHT22;1855;50.934;6.958;2022-09-28T13:09:19;13.70;67.70
3678;DHT22;1855;50.934;6.958;2022-09-28T13:11:59;13.70;66.90
3678;DHT22;1855;50.934;6.958;2022-09-28T13:14:57;13.80;67.10
3678;DHT22;1855;50.934;6.958;2022-09-28T13:17:36;13.80;66.90
3678;DHT22;1855;50.934;6.958;2022-09-28T13:20:14;13.90;67.10
3678;DHT22;1855;50.934;6.958;2022-09-28T13:22:48;13.90;66.40
3678;DHT22;1855;50.934;6.958;2022-09-28T13:25:19;14.10;66.70
3678;DHT22;1855;50.934;6.958;2022-09-28T13:27:51;14.40;66.20
3678;DHT22;1855;50.934;6.958;2022-09-28T13:30:18;14.50;64.50
3678;DHT22;1855;50.934;6.958;2022-09-28T13:32:47;14.60;64.40
3678;DHT22;1855;50.934;6.958;2022-09-28T13:35:16;14.70;64.50
3678;DHT22;1855;50.934;6.958;2022-09-28T13:37:45;14.70;63.10
3678;DHT22;1855;50.934;6.958;2022-09-28T13:40:13;14.60;62.80
3678;DHT22;1855;50.934;6.958;2022-09-28T13:42:55;14.60;63.20
3678;DHT22;1855;50.934;6.958;2022-09-28T13:48:18;14.20;63.70
3678;DHT22;1855;50.934;6.958;2022-09-28T13:51:02;14.00;69.40
3678;DHT22;1855;50.934;6.958;2022-09-28T13:53:40;13.70;68.40
3678;DHT22;1855;50.934;6.958;2022-09-28T13:56:22;13.40;69.90
3678;DHT22;1855;50.934;6.958;2022-09-28T13:58:54;13.20;71.40
3678;DHT22;1855;50.934;6.958;2022-09-28T14:01:28;13.20;69.60
3678;DHT22;1855;50.934;6.958;2022-09-28T14:04:12;13.20;70.60
3678;DHT22;1855;50.934;6.958;2022-09-28T14:06:41;13.20;72.70
3678;DHT22;1855;50.934;6.958;2022-09-28T14:09:25;13.40;68.60
3678;DHT22;1855;50.934;6.958;2022-09-28T14:11:57;13.70;69.10
3678;DHT22;1855;50.934;6.958;2022-09-28T14:14:47;13.90;68.50
3678;DHT22;1855;50.934;6.958;2022-09-28T14:17:50;14.00;66.30
3678;DHT22;1855;50.934;6.958;2022-09-28T14:20:22;14.10;66.60
3678;DHT22;1855;50.934;6.958;2022-09-28T14:26:24;14.30;64.10
3678;DHT22;1855;50.934;6.958;2022-09-28T14:29:03;14.30;64.60
3678;DHT22;1855;50.934;6.958;2022-09-28T14:31:31;14.20;64.00
3678;DHT22;1855;50.934;6.958;2022-09-28T14:34:00;14.10;63.70
3678;DHT22;1855;50.934;6.958;2022-09-28T14:36:33;14.10;65.80
3678;DHT22;1855;50.934;6.958;2022-09-28T14:39:21;13.90;65.80
3678;DHT22;1855;50.934;6.958;2022-09-28T14:42:13;13.80;65.70
3678;DHT22;1855;50.934;6.958;2022-09-28T14:48:12;13.70;66.60
3678;DHT22;1855;50.934;6.958;2022-09-28T14:50:39;13.60;66.40
3678;DHT22;1855;50.934;6.958;2022-09-28T14:53:09;13.60;66.60
3678;DHT22;1855;50.934;6.958;2022-09-28T14:55:43;13.60;67.10
3678;DHT22;1855;50.934;6.958;2022-09-28T14:58:18;13.60;68.40
3678;DHT22;1855;50.934;6.958;2022-09-28T15:00:50;13.60;67.20
3678;DHT22;1855;50.934;6.958;2022-09-28T15:03:19;13.50;66.60
3678;DHT22;1855;50.934;6.958;2022-09-28T15:05:47;13.40;67.00
3678;DHT22;1855;50.934;6.958;2022-09-28T15:08:15;13.40;67.50
3678;DHT22;1855;50.934;6.958;2022-09-28T15:10:46;13.30;68.40
3678;DHT22;1855;50.934;6.958;2022-09-28T15:13:20;13.20;69.20
3678;DHT22;1855;50.934;6.958;2022-09-28T15:15:49;13.10;69.80
3678;DHT22;1855;50.934;6.958;2022-09-28T15:18:46;13.00;71.50
3678;DHT22;1855;50.934;6.958;2022-09-28T15:21:16;12.80;74.90
3678;DHT22;1855;50.934;6.958;2022-09-28T15:23:44;12.70;76.70
3678;DHT22;1855;50.934;6.958;2022-09-28T15:26:21;12.70;78.40
3678;DHT22;1855;50.934;6.958;2022-09-28T15:28:49;12.60;77.40
3678;DHT22;1855;50.934;6.958;2022-09-28T15:31:18;12.50;80.10
3678;DHT22;1855;50.934;6.958;2022-09-28T15:33:46;12.40;79.90
3678;DHT22;1855;50.934;6.958;2022-09-28T15:36:32;12.30;80.10
3678;DHT22;1855;50.934;6.958;2022-09-28T15:39:02;12.20;79.40
3678;DHT22;1855;50.934;6.958;2022-09-28T15:41:29;12.10;79.90
3678;DHT22;1855;50.934;6.958;2022-09-28T15:44:06;12.00;79.60
3678;DHT22;1855;50.934;6.958;2022-09-28T15:46:35;12.00;79.70
3678;DHT22;1855;50.934;6.958;2022-09-28T15:49:03;12.00;79.80
3678;DHT22;1855;50.934;6.958;2022-09-28T15:51:31;12.10;78.90
3678;DHT22;1855;50.934;6.958;2022-09-28T15:54:13;12.10;79.80
3678;DHT22;1855;50.934;6.958;2022-09-28T15:56:49;12.20;80.70
3678;DHT22;1855;50.934;6.958;2022-09-28T15:59:25;12.20;79.90
3678;DHT22;1855;50.934;6.958;2022-09-28T16:02:02;12.30;80.40
3678;DHT22;1855;50.934;6.958;2022-09-28T16:04:38;12.30;80.80
3678;DHT22;1855;50.934;6.958;2022-09-28T16:07:22;12.40;81.00
3678;DHT22;1855;50.934;6.958;2022-09-28T16:10:00;12.50;80.80
3678;DHT22;1855;50.934;6.958;2022-09-28T16:12:39;12.50;79.40
3678;DHT22;1855;50.934;6.958;2022-09-28T16:15:14;12.50;79.20
3678;DHT22;1855;50.934;6.958;2022-09-28T16:17:48;12.50;79.40
3678;DHT22;1855;50.934;6.958;2022-09-28T16:20:26;12.50;79.00
3678;DHT22;1855;50.934;6.958;2022-09-28T16:22:55;12.40;78.60
3678;DHT22;1855;50.934;6.958;2022-09-28T16:25:23;12.40;80.80
3678;DHT22;1855;50.934;6.958;2022-09-28T16:27:52;12.20;82.60
3678;DHT22;1855;50.934;6.958;2022-09-28T16:30:23;12.10;82.90
3678;DHT22;1855;50.934;6.958;2022-09-28T16:32:52;11.90;83.70
3678;DHT22;1855;50.934;6.958;2022-09-28T16:35:23;11.80;85.50
3678;DHT22;1855;50.934;6.958;2022-09-28T16:38:00;11.70;84.40
3678;DHT22;1855;50.934;6.958;2022-09-28T16:40:27;11.60;85.40
3678;DHT22;1855;50.934;6.958;2022-09-28T16:42:57;11.50;86.00
3678;DHT22;1855;50.934;6.958;2022-09-28T16:45:26;11.50;85.90
3678;DHT22;1855;50.934;6.958;2022-09-28T16:47:54;11.50;87.50
3678;DHT22;1855;50.934;6.958;2022-09-28T16:50:23;11.50;88.00
3678;DHT22;1855;50.934;6.958;2022-09-28T16:52:57;11.50;87.00
3678;DHT22;1855;50.934;6.958;2022-09-28T16:55:42;11.50;86.40
3678;DHT22;1855;50.934;6.958;2022-09-28T16:58:09;11.50;85.70